Time;durP1;ratioP1;P1;durP2;ratioP2;P2;SDS_P1;SDS_P2;PMS_P1;PMS_P2;Temp;Humidity;BMP_temperature;BMP_pressure;BME280_temperature;BME280_humidity;BME280_pressure;Samples;Min_cycle;Max_cycle;Signal;HPM_P1;HPM_P2
2023/02/13 00:01:35;;;;;;;4.10;3.28;;;;;;;-0.07;80.67;101689.25;5117437;28;20050;-68
2023/02/13 00:04:05;;;;;;;2.15;1.95;;;;;;;-0.19;80.38;101695.88;5117796;28;20100;-68
2023/02/13 00:06:33;;;;;;;5.95;4.05;;;;;;;-0.30;80.55;101692.59;5117374;28;20557;-68
2023/02/13 00:09:02;;;;;;;4.30;2.20;;;;;;;-0.26;80.52;101702.09;5117675;28;20083;-68
2023/02/13 00:11:34;;;;;;;3.25;2.15;;;;;;;-0.24;80.56;101692.19;5117583;28;20560;-68
2023/02/13 00:14:03;;;;;;;3.42;2.15;;;;;;;-0.23;80.27;101699.81;5117260;28;20471;-68
2023/02/13 00:16:32;;;;;;;4.63;3.80;;;;;;;-0.19;80.60;101699.28;5117283;28;20101;-68
2023/02/13 00:19:02;;;;;;;6.13;3.80;;;;;;;-0.30;80.30;101694.22;5117134;28;20560;-68
2023/02/13 00:21:31;;;;;;;2.03;1.90;;;;;;;-0.47;80.43;101703.00;5117141;28;20058;-68
2023/02/13 00:24:00;;;;;;;1.57;1.47;;;;;;;-0.46;80.62;101699.75;5116941;28;20497;-68
2023/02/13 00:26:28;;;;;;;15.73;2.97;;;;;;;-0.46;80.46;101709.78;5117062;28;20096;-68
2023/02/13 00:28:58;;;;;;;2.37;2.23;;;;;;;-0.53;80.76;101697.53;5116969;28;20292;-68
2023/02/13 00:31:26;;;;;;;2.65;2.25;;;;;;;-0.49;80.59;101694.50;5116924;27;20105;-68
2023/02/13 00:33:55;;;;;;;0.63;0.60;;;;;;;-0.52;80.44;101704.28;5115607;28;20065;-68
2023/02/13 00:36:26;;;;;;;4.03;3.67;;;;;;;-0.57;80.51;101698.03;5115932;28;20092;-68
2023/02/13 00:38:55;;;;;;;2.45;2.25;;;;;;;-0.54;80.66;101705.81;5117057;28;20101;-68
2023/02/13 00:41:24;;;;;;;2.38;1.60;;;;;;;-0.49;80.73;101704.53;5116706;28;20040;-69
2023/02/13 00:43:53;;;;;;;3.77;2.10;;;;;;;-0.59;80.55;101699.56;5116992;28;20104;-68
2023/02/13 00:46:21;;;;;;;2.05;1.95;;;;;;;-0.63;80.67;101705.13;5115311;28;20035;-68
2023/02/13 00:48:50;;;;;;;4.97;3.55;;;;;;;-0.62;80.47;101704.34;5116454;28;20035;-68
2023/02/13 00:51:19;;;;;;;2.05;1.90;;;;;;;-0.63;80.66;101705.13;5115387;28;20043;-67
2023/02/13 00:53:49;;;;;;;2.77;2.60;;;;;;;-0.62;80.38;101711.84;5115281;28;20067;-68
2023/02/13 00:56:18;;;;;;;4.82;3.42;;;;;;;-0.58;80.62;101712.97;5116803;28;20557;-68
2023/02/13 00:58:47;;;;;;;1.90;1.80;;;;;;;-0.58;80.53;101718.88;5115201;28;20050;-68
2023/02/13 01:01:16;;;;;;;3.72;2.55;;;;;;;-0.56;80.49;101714.84;5116657;28;20379;-68
2023/02/13 01:03:45;;;;;;;4.75;3.30;;;;;;;-0.58;80.62;101713.88;5115021;28;20036;-68
2023/02/13 01:06:14;;;;;;;2.53;1.67;;;;;;;-0.64;80.35;101713.38;5116204;28;20084;-68
2023/02/13 01:08:43;;;;;;;4.70;3.47;;;;;;;-0.78;80.36;101713.97;5116539;28;20122;-68
2023/02/13 01:11:14;;;;;;;3.22;3.00;;;;;;;-0.82;80.18;101727.03;5116597;28;20311;-68
2023/02/13 01:13:45;;;;;;;1.92;1.25;;;;;;;-0.75;80.29;101719.22;5116173;27;20082;-68
2023/02/13 01:16:16;;;;;;;19.30;18.02;;;;;;;-0.73;80.42;101715.19;5115824;28;20098;-68
2023/02/13 01:18:45;;;;;;;1.85;1.75;;;;;;;-0.72;80.44;101724.47;5114830;28;20051;-68
2023/02/13 01:21:19;;;;;;;9.23;1.47;;;;;;;-0.74;80.95;101733.47;5116213;28;20370;-68
2023/02/13 01:23:48;;;;;;;3.55;3.25;;;;;;;-0.72;80.77;101719.47;5116238;28;20475;-68
2023/02/13 01:26:23;;;;;;;2.60;2.40;;;;;;;-0.75;80.81;101716.72;5116154;28;20092;-68
2023/02/13 01:28:54;;;;;;;2.47;1.95;;;;;;;-0.80;80.79;101712.97;5115861;28;20051;-68
2023/02/13 01:31:23;;;;;;;4.00;3.63;;;;;;;-0.68;81.09;101711.41;5114614;28;20135;-68
2023/02/13 01:33:52;;;;;;;1.73;1.35;;;;;;;-0.64;81.02;101713.38;5115831;27;20039;-68
2023/02/13 01:36:23;;;;;;;2.85;2.65;;;;;;;-0.66;81.11;101714.91;5115721;28;20047;-68
2023/02/13 01:38:54;;;;;;;3.03;2.83;;;;;;;-0.77;81.13;101706.53;5115635;28;20043;-69
2023/02/13 01:41:27;;;;;;;3.92;3.63;;;;;;;-0.71;81.00;101711.16;5115529;28;20040;-68
2023/02/13 01:43:58;;;;;;;15.13;3.17;;;;;;;-0.73;81.05;101705.16;5115512;28;20054;-68
2023/02/13 01:46:33;;;;;;;3.55;2.70;;;;;;;-0.80;81.43;101700.44;5114298;28;20150;-68
2023/02/13 01:49:12;;;;;;;1.30;1.23;;;;;;;-0.85;81.16;101691.69;5115489;28;20048;-67
2023/02/13 01:51:42;;;;;;;2.13;1.92;;;;;;;-0.80;81.54;101697.94;5115439;28;20054;-68
2023/02/13 01:54:15;;;;;;;2.20;2.05;;;;;;;-0.80;81.79;101696.31;5114214;28;20044;-68
2023/02/13 01:56:49;;;;;;;1.00;1.00;;;;;;;-0.85;81.50;101691.69;5114312;28;20574;-68
2023/02/13 01:59:23;;;;;;;2.78;2.58;;;;;;;-0.88;81.33;101683.94;5114411;28;20127;-67
2023/02/13 02:01:53;;;;;;;2.00;1.90;;;;;;;-0.83;81.17;101690.19;5114372;28;20039;-68
2023/02/13 02:04:28;;;;;;;3.08;2.83;;;;;;;-0.80;81.26;101690.41;5115163;28;20059;-68
2023/02/13 02:07:00;;;;;;;2.78;2.28;;;;;;;-0.83;81.25;101695.19;5113848;28;20039;-67
2023/02/13 02:09:38;;;;;;;3.67;3.42;;;;;;;-0.82;81.53;101691.94;5114152;28;20044;-68
2023/02/13 02:12:14;;;;;;;4.00;2.47;;;;;;;-0.86;80.98;101684.91;5115308;28;20051;-67
2023/02/13 02:14:43;;;;;;;0.60;0.60;;;;;;;-1.00;81.23;101690.50;5113553;28;20090;-67
2023/02/13 02:17:13;;;;;;;6.40;4.07;;;;;;;-1.07;81.33;101688.28;5115099;28;20121;-67
2023/02/13 02:19:50;;;;;;;3.00;2.40;;;;;;;-1.04;81.26;101699.44;5115074;28;20042;-68
2023/02/13 02:22:46;;;;;;;2.25;2.10;;;;;;;-1.00;81.56;101690.50;5114911;28;20051;-67
2023/02/13 02:25:47;;;;;;;2.92;2.72;;;;;;;-1.00;81.45;101676.34;5130970;27;20663;-68
2023/02/13 02:28:40;;;;;;;3.00;2.40;;;;;;;-1.01;81.56;101683.75;5109248;28;20048;-68
2023/02/13 02:31:35;;;;;;;4.30;3.90;;;;;;;-1.07;81.54;101675.75;5114910;28;20457;-68
2023/02/13 02:34:18;;;;;;;2.38;2.00;;;;;;;-1.13;81.60;101662.78;5081277;28;20056;-68
2023/02/13 02:37:05;;;;;;;8.20;3.33;;;;;;;-1.09;81.49;101672.25;5113664;28;20457;-68
2023/02/13 02:39:46;;;;;;;3.70;3.40;;;;;;;-1.03;81.58;101670.25;5114455;28;20047;-68
2023/02/13 02:42:28;;;;;;;2.88;2.65;;;;;;;-0.96;81.62;101663.28;5114453;28;20089;-67
2023/02/13 02:45:06;;;;;;;2.20;2.10;;;;;;;-0.91;81.52;101662.00;5113708;28;20043;-68
2023/02/13 02:50:35;;;;;;;1.45;1.35;;;;;;;-0.96;81.50;101652.44;5113487;28;20071;-67
2023/02/13 02:53:14;;;;;;;3.10;2.90;;;;;;;-1.05;81.44;101642.56;5115167;28;20056;-68
2023/02/13 02:55:51;;;;;;;2.90;2.50;;;;;;;-1.06;81.40;101643.34;5114593;28;20454;-68
2023/02/13 03:06:35;;;;;;;5.55;2.72;;;;;;;-1.25;81.13;101661.81;5114402;28;20043;-67
2023/02/13 03:14:32;;;;;;;1.83;1.65;;;;;;;-1.20;81.04;101658.06;5113790;28;20050;-67
2023/02/13 03:22:45;;;;;;;2.60;2.38;;;;;;;-1.29;80.84;101659.81;5113976;28;20493;-66
2023/02/13 03:25:29;;;;;;;3.72;2.92;;;;;;;-1.38;80.96;101655.88;5113975;28;20101;-67
2023/02/13 03:30:56;;;;;;;2.90;2.67;;;;;;;-1.46;80.66;101659.38;5113864;28;20071;-67
2023/02/13 03:33:42;;;;;;;0.93;0.93;;;;;;;-1.45;80.66;101657.75;5114171;28;20443;-67
2023/02/13 03:39:07;;;;;;;4.13;3.67;;;;;;;-1.49;80.77;101666.66;5114117;28;20050;-67
2023/02/13 03:41:41;;;;;;;3.00;2.37;;;;;;;-1.48;80.93;101663.41;5113693;28;20043;-67
2023/02/13 03:44:18;;;;;;;3.03;2.80;;;;;;;-1.45;81.07;101662.78;5113760;28;20048;-67
2023/02/13 03:46:50;;;;;;;3.75;2.55;;;;;;;-1.41;80.88;101675.66;5113734;28;20504;-67
2023/02/13 03:52:06;;;;;;;2.63;2.42;;;;;;;-1.31;80.99;101672.22;5113634;28;20489;-67
2023/02/13 04:00:09;;;;;;;1.75;1.65;;;;;;;-1.33;80.90;101678.75;5113660;28;20055;-67
2023/02/13 04:02:52;;;;;;;5.40;4.45;;;;;;;-1.42;80.54;101688.91;5113847;28;20044;-67
2023/02/13 04:05:22;;;;;;;;;;;;;;;-1.50;80.89;101686.56;5114297;28;20140;-67
2023/02/13 04:07:51;;;;;;;5.45;1.75;;;;;;;-1.51;81.09;101697.31;5113508;28;19920;-67
2023/02/13 04:10:23;;;;;;;3.92;2.03;;;;;;;-1.44;81.16;101687.91;5113524;28;20040;-66
2023/02/13 04:13:02;;;;;;;2.08;1.90;;;;;;;-1.47;81.19;101672.69;5113428;28;20082;-67
2023/02/13 04:15:37;;;;;;;5.82;5.32;;;;;;;-1.62;81.08;101678.97;5113253;28;20051;-66
2023/02/13 04:18:10;;;;;;;7.70;6.55;;;;;;;-1.65;81.30;101683.72;5113507;28;20512;-67
2023/02/13 04:20:39;;;;;;;2.88;2.50;;;;;;;-1.62;81.34;101678.09;5113705;28;20058;-67
2023/02/13 04:23:10;;;;;;;0.75;0.75;;;;;;;-1.56;81.02;101676.94;5116044;28;20450;-67
2023/02/13 04:25:44;;;;;;;7.63;2.88;;;;;;;-1.60;81.34;101676.56;5117046;28;20040;-66
2023/02/13 04:28:13;;;;;;;1.67;1.58;;;;;;;-1.61;81.30;101680.69;5117049;28;20078;-67
2023/02/13 04:30:42;;;;;;;10.00;4.20;;;;;;;-1.60;81.34;101687.47;5117001;28;20044;-66
2023/02/13 04:33:11;;;;;;;2.53;2.38;;;;;;;-1.56;81.66;101691.94;5116884;27;20096;-66
2023/02/13 04:35:40;;;;;;;1.77;1.67;;;;;;;-1.53;81.24;101694.72;5117215;28;20074;-66
2023/02/13 04:38:09;;;;;;;9.20;2.25;;;;;;;-1.53;81.74;101687.19;5117103;27;20088;-66
2023/02/13 04:40:37;;;;;;;1.03;1.03;;;;;;;-1.71;81.43;101683.25;5115771;28;20044;-67
2023/02/13 04:43:07;;;;;;;10.03;3.57;;;;;;;-1.71;81.32;101685.75;5116623;28;20780;-66
2023/02/13 04:45:36;;;;;;;2.25;2.10;;;;;;;-1.69;81.48;101684.25;5116619;28;20291;-67
2023/02/13 04:48:05;;;;;;;3.97;3.57;;;;;;;-1.78;81.57;101672.63;5116601;28;20079;-67
2023/02/13 04:50:34;;;;;;;2.05;1.95;;;;;;;-1.68;81.82;101685.97;5116545;28;20078;-66
2023/02/13 04:53:03;;;;;;;4.13;2.73;;;;;;;-1.62;81.05;101690.59;5116472;28;20100;-66
2023/02/13 04:55:31;;;;;;;4.65;3.97;;;;;;;-1.67;81.55;101686.84;5116499;28;20044;-66
2023/02/13 04:58:00;;;;;;;1.30;1.27;;;;;;;-1.75;81.25;101683.75;5116429;28;20096;-66
2023/02/13 05:00:30;;;;;;;0.80;0.80;;;;;;;-1.76;81.49;101689.50;5116717;28;20038;-67
2023/02/13 05:03:05;;;;;;;2.70;2.50;;;;;;;-1.75;81.84;101685.38;5116334;27;20036;-66
2023/02/13 05:05:34;;;;;;;10.38;4.10;;;;;;;-1.80;81.47;101672.47;5116180;28;20043;-67
2023/02/13 05:08:04;;;;;;;12.35;6.78;;;;;;;-1.80;81.53;101686.66;5116529;28;20394;-67
2023/02/13 05:10:32;;;;;;;8.32;2.90;;;;;;;-1.89;81.35;101691.75;5116202;28;20079;-66
2023/02/13 05:13:02;;;;;;;6.53;5.87;;;;;;;-1.97;81.35;101687.78;5116056;28;20130;-67
2023/02/13 05:15:32;;;;;;;1.83;1.73;;;;;;;-1.96;81.40;101689.53;5116088;28;20047;-66
2023/02/13 05:18:01;;;;;;;4.63;2.95;;;;;;;-1.87;81.30;101690.25;5116174;28;20047;-67
2023/02/13 05:20:30;;;;;;;2.00;1.50;;;;;;;-1.88;81.58;101685.16;5116020;28;20036;-68
2023/02/13 05:25:39;;;;;;;;;;;;;;;-1.85;81.19;101688.78;5116327;28;20081;-67
2023/02/13 05:29:17;;;;;;;;;;;;;;;-1.78;81.57;101681.00;5116887;28;20265;-67
2023/02/13 05:30:57;;;;;;;2.03;1.48;;;;;;;-1.72;81.31;101686.50;5115639;28;19932;-67
2023/02/13 05:33:27;;;;;;;2.70;2.50;;;;;;;-1.70;81.34;101684.97;5115851;28;20054;-67
2023/02/13 05:35:56;;;;;;;3.57;3.27;;;;;;;-1.65;81.79;101681.22;5115656;28;20039;-68
2023/02/13 05:38:25;;;;;;;3.30;3.00;;;;;;;-1.59;81.77;101683.34;5115655;28;20048;-67
2023/02/13 05:40:54;;;;;;;2.53;2.33;;;;;;;-1.46;81.86;101689.44;5115639;28;20397;-67
2023/02/13 05:43:23;;;;;;;;;;;;;;;-1.42;82.04;101688.91;5115935;28;20038;-67
2023/02/13 05:45:52;;;;;;;5.57;2.80;;;;;;;-1.34;81.90;101688.66;5115499;28;19920;-67
2023/02/13 05:48:22;;;;;;;8.20;5.27;;;;;;;-1.34;82.27;101677.00;5115455;28;20043;-67
2023/02/13 05:50:51;;;;;;;3.85;3.22;;;;;;;-1.21;82.78;101683.84;5115782;28;20326;-68
2023/02/13 05:53:20;;;;;;;1.75;1.58;;;;;;;-1.16;82.58;101688.47;5115599;28;20122;-67
2023/02/13 05:55:49;;;;;;;3.88;3.58;;;;;;;-1.10;82.38;101690.53;5115752;28;20493;-67
2023/02/13 05:58:18;;;;;;;;;;;;;;;-1.05;82.46;101694.28;5115639;28;20159;-67
2023/02/13 06:00:48;;;;;;;3.30;2.93;;;;;;;-1.09;82.72;101679.78;5115196;28;20018;-67
2023/02/13 06:03:17;;;;;;;2.25;2.05;;;;;;;-1.04;82.87;101696.03;5115399;28;20155;-68
2023/02/13 06:05:47;;;;;;;3.23;2.93;;;;;;;-1.06;82.51;101692.56;5115083;28;20051;-68
2023/02/13 06:08:16;;;;;;;2.50;2.28;;;;;;;-0.98;82.83;101701.50;5114064;28;20082;-67
2023/02/13 06:10:44;;;;;;;2.13;1.95;;;;;;;-0.97;82.94;101710.81;5115007;28;20047;-67
2023/02/13 06:13:13;;;;;;;5.17;4.67;;;;;;;-0.95;83.08;101699.25;5115048;28;20046;-67
2023/02/13 06:15:42;;;;;;;1.53;1.43;;;;;;;-0.96;82.86;101705.03;5113539;28;20078;-67
2023/02/13 06:18:11;;;;;;;42.35;4.60;;;;;;;-0.99;82.91;101695.66;5113921;28;20366;-67
2023/02/13 06:20:39;;;;;;;1.03;0.97;;;;;;;-0.99;83.14;101707.31;5114849;28;20554;-68
2023/02/13 06:23:10;;;;;;;3.35;3.08;;;;;;;-0.94;83.21;101701.91;5114648;28;20834;-68
2023/02/13 06:25:39;;;;;;;4.03;3.42;;;;;;;-0.67;83.36;101708.13;5114489;28;20063;-67
2023/02/13 06:28:08;;;;;;;1.45;1.35;;;;;;;-0.54;83.45;101705.81;5114922;28;20454;-67
2023/02/13 06:30:37;;;;;;;3.15;2.92;;;;;;;-0.59;82.98;101697.06;5114640;28;20043;-68
2023/02/13 06:33:06;;;;;;;4.50;3.60;;;;;;;-0.61;83.33;101696.06;5114526;28;20036;-67
2023/02/13 06:35:34;;;;;;;1.20;1.20;;;;;;;-0.60;83.22;101694.44;5114738;28;20490;-67
2023/02/13 06:38:03;;;;;;;2.30;2.13;;;;;;;-0.60;83.61;101685.25;5113389;28;20455;-67
2023/02/13 06:40:33;;;;;;;1.57;1.47;;;;;;;-0.56;83.45;101712.34;5114451;28;20290;-67
2023/02/13 06:43:03;;;;;;;3.08;2.85;;;;;;;-0.54;83.45;101695.78;5114538;28;20780;-68
2023/02/13 06:45:32;;;;;;;1.85;1.75;;;;;;;-0.55;83.33;101699.03;5114251;28;20123;-67
2023/02/13 06:48:01;;;;;;;1.43;1.33;;;;;;;-0.50;83.75;101702.75;5114321;28;20118;-67
2023/02/13 06:50:29;;;;;;;3.87;3.57;;;;;;;-0.47;83.80;101692.97;5114205;28;20288;-67
2023/02/13 06:52:58;;;;;;;1.17;1.17;;;;;;;-0.52;83.71;101699.25;5114588;28;20043;-67
2023/02/13 06:55:27;;;;;;;1.67;1.57;;;;;;;-0.45;83.99;101690.56;5114185;28;20078;-69
2023/02/13 06:57:58;;;;;;;54.25;44.40;;;;;;;-0.40;84.00;101702.69;5114537;28;20047;-67
2023/02/13 07:00:27;;;;;;;1.98;1.85;;;;;;;-0.26;83.85;101703.72;5114101;28;20051;-67
2023/02/13 07:03:02;;;;;;;4.63;3.65;;;;;;;-0.19;83.97;101711.81;5114339;28;20054;-68
2023/02/13 07:05:31;;;;;;;6.75;4.30;;;;;;;-0.20;83.87;101699.16;5114121;28;20071;-68
2023/02/13 07:07:59;;;;;;;2.90;2.58;;;;;;;-0.22;83.65;101690.66;5114331;28;20382;-67
2023/02/13 07:10:28;;;;;;;2.30;2.10;;;;;;;-0.10;83.73;101704.97;5114104;28;20044;-67
2023/02/13 07:12:58;;;;;;;3.30;3.07;;;;;;;-0.07;83.74;101697.66;5113868;28;20104;-67
2023/02/13 07:15:34;;;;;;;1.10;1.02;;;;;;;-0.01;83.79;101705.66;5113960;28;20367;-68
2023/02/13 07:18:05;;;;;;;4.20;3.90;;;;;;;0.07;83.70;101701.22;5113971;28;20497;-68
2023/02/13 07:20:34;;;;;;;3.05;2.47;;;;;;;0.08;83.56;101705.44;5113972;28;20470;-68
2023/02/13 07:23:04;;;;;;;3.37;2.60;;;;;;;0.10;83.33;101706.44;5113786;28;20036;-68
2023/02/13 07:25:33;;;;;;;12.90;4.68;;;;;;;0.15;83.77;101709.28;5113866;28;20292;-68
2023/02/13 07:28:05;;;;;;;2.80;2.58;;;;;;;0.20;83.49;101702.94;5114109;28;20040;-67
2023/02/13 07:30:35;;;;;;;2.45;2.25;;;;;;;0.18;83.82;101700.34;5113883;28;20052;-67
2023/02/13 07:33:05;;;;;;;3.97;1.15;;;;;;;0.30;83.59;101705.38;5113778;28;20043;-67
2023/02/13 07:35:35;;;;;;;4.43;2.72;;;;;;;0.29;83.38;101726.25;5114037;28;20516;-68
2023/02/13 07:38:04;;;;;;;2.78;2.35;;;;;;;0.36;83.32;101705.84;5114004;28;20493;-67
2023/02/13 07:40:32;;;;;;;2.00;1.90;;;;;;;0.34;83.19;101717.38;5113544;28;20070;-68
2023/02/13 07:43:01;;;;;;;3.40;3.10;;;;;;;0.37;83.49;101717.59;5113774;28;20036;-68
2023/02/13 07:45:32;;;;;;;2.60;2.13;;;;;;;0.46;83.54;101708.22;5113984;28;20036;-68
2023/02/13 07:48:01;;;;;;;2.38;2.20;;;;;;;0.48;83.41;101699.19;5113947;28;20043;-67
2023/02/13 07:50:30;;;;;;;7.17;5.80;;;;;;;0.54;83.22;101712.16;5113581;28;20040;-67
2023/02/13 07:53:02;;;;;;;1.63;1.52;;;;;;;0.47;82.63;101725.06;5113624;28;20039;-67
2023/02/13 07:55:31;;;;;;;3.53;2.65;;;;;;;0.48;82.55;101716.75;5113894;28;20088;-68
2023/02/13 07:58:00;;;;;;;3.30;3.03;;;;;;;0.50;82.28;101720.25;5116011;28;20067;-68
2023/02/13 08:00:31;;;;;;;1.50;1.40;;;;;;;0.50;82.47;101715.22;5117750;28;20528;-67
2023/02/13 08:03:00;;;;;;;4.28;1.42;;;;;;;0.62;82.65;101711.09;5118210;28;20419;-67
2023/02/13 08:05:31;;;;;;;6.03;2.15;;;;;;;0.68;82.31;101711.50;5117349;28;20039;-68
2023/02/13 08:08:00;;;;;;;2.10;1.98;;;;;;;0.70;81.88;101714.16;5117517;28;20058;-67
2023/02/13 08:13:09;;;;;;;2.53;2.33;;;;;;;0.63;81.70;101707.78;5116199;28;20509;-67
2023/02/13 08:15:39;;;;;;;1.70;1.60;;;;;;;0.71;82.30;101716.75;5117045;28;20055;-68
2023/02/13 08:18:07;;;;;;;3.13;2.08;;;;;;;0.77;81.45;101717.16;5114507;28;20649;-67
2023/02/13 08:20:36;;;;;;;3.15;2.80;;;;;;;0.82;81.62;101709.94;5115914;28;20053;-67
2023/02/13 08:23:07;;;;;;;3.88;3.42;;;;;;;0.98;81.58;101708.66;5114410;28;20063;-66
2023/02/13 08:25:37;;;;;;;3.72;3.05;;;;;;;1.05;81.37;101705.78;5116790;28;20028;-66
2023/02/13 08:28:06;;;;;;;14.40;3.22;;;;;;;1.15;81.82;101708.16;5114372;28;20073;-67
2023/02/13 08:30:35;;;;;;;1.10;1.05;;;;;;;1.22;81.44;101710.31;5116772;28;20054;-65
2023/02/13 08:33:05;;;;;;;3.77;3.43;;;;;;;1.27;81.50;101714.03;5117202;28;20040;-66
2023/02/13 08:35:34;;;;;;;3.35;3.10;;;;;;;1.30;81.19;101709.22;5114027;28;20364;-65
2023/02/13 08:38:03;;;;;;;2.70;1.43;;;;;;;1.44;81.88;101694.19;5113693;28;20040;-66
2023/02/13 08:40:32;;;;;;;1.48;1.38;;;;;;;1.65;81.77;101694.00;5116280;28;20039;-65
2023/02/13 08:43:02;;;;;;;2.78;2.08;;;;;;;1.80;80.89;101694.16;5113400;28;20066;-66
2023/02/13 08:45:31;;;;;;;1.23;1.17;;;;;;;2.04;81.74;101685.66;5116138;28;20032;-66
2023/02/13 08:48:02;;;;;;;4.32;3.92;;;;;;;2.21;80.63;101700.22;5115949;28;20485;-66
2023/02/13 08:50:33;;;;;;;2.58;2.40;;;;;;;2.25;80.55;101702.19;5116099;28;20039;-66
2023/02/13 08:53:05;;;;;;;2.72;2.53;;;;;;;2.40;80.70;101688.03;5116113;28;20042;-65
2023/02/13 08:55:34;;;;;;;2.67;2.47;;;;;;;2.42;80.65;101694.06;5117013;28;20076;-66
2023/02/13 08:58:04;;;;;;;6.57;3.67;;;;;;;2.45;79.74;101689.22;5114061;27;20067;-67
2023/02/13 09:00:34;;;;;;;5.88;3.22;;;;;;;2.42;79.36;101686.53;5115656;28;20496;-66
2023/02/13 09:03:04;;;;;;;1.42;1.33;;;;;;;2.45;79.13;101691.72;5115460;28;20096;-64
2023/02/13 09:05:35;;;;;;;2.10;1.95;;;;;;;2.59;78.51;101687.59;5115704;28;20031;-66
2023/02/13 09:08:04;;;;;;;2.35;2.15;;;;;;;2.62;78.25;101691.16;5115336;28;20076;-65
2023/02/13 09:10:33;;;;;;;1.67;1.58;;;;;;;2.63;78.61;101690.41;5115643;28;20039;-67
2023/02/13 09:13:01;;;;;;;2.25;2.05;;;;;;;2.71;78.20;101701.81;5115839;28;20135;-67
2023/02/13 09:15:30;;;;;;;1.53;1.43;;;;;;;2.85;77.58;101694.25;5115283;28;20098;-66
2023/02/13 09:17:59;;;;;;;3.03;1.70;;;;;;;2.81;77.01;101692.31;5115334;28;20042;-67
2023/02/13 09:20:28;;;;;;;0.77;0.77;;;;;;;2.79;77.63;101683.75;5115499;28;20046;-66
2023/02/13 09:22:58;;;;;;;8.75;3.53;;;;;;;2.78;77.28;101687.09;5115367;28;20040;-66
2023/02/13 09:25:27;;;;;;;2.55;2.35;;;;;;;2.73;76.65;101690.16;5115525;28;20036;-65
2023/02/13 09:27:56;;;;;;;3.70;3.40;;;;;;;2.77;76.73;101692.88;5116212;27;20047;-66
2023/02/13 09:30:25;;;;;;;2.08;1.35;;;;;;;2.89;77.54;101696.16;5115540;28;20276;-65
2023/02/13 09:32:54;;;;;;;2.58;2.38;;;;;;;3.02;77.23;101701.22;5112954;28;20101;-66
2023/02/13 09:35:23;;;;;;;2.88;2.65;;;;;;;3.18;76.53;101701.38;5115243;28;20035;-66
2023/02/13 09:37:53;;;;;;;2.75;2.55;;;;;;;3.31;76.96;101694.63;5112412;28;20039;-66
2023/02/13 09:40:27;;;;;;;4.38;3.97;;;;;;;3.47;76.48;101696.44;5113821;28;20152;-65
2023/02/13 09:43:06;;;;;;;2.33;2.13;;;;;;;3.56;76.37;101699.50;5114478;28;20427;-66
2023/02/13 09:45:35;;;;;;;2.83;2.20;;;;;;;3.72;76.28;101697.09;5115385;28;20138;-66
2023/02/13 09:48:05;;;;;;;2.65;2.45;;;;;;;3.86;75.58;101687.81;5114710;28;20493;-64
2023/02/13 09:50:35;;;;;;;4.60;2.90;;;;;;;4.08;75.77;101690.75;5115379;28;20501;-65
2023/02/13 09:53:04;;;;;;;2.55;2.30;;;;;;;4.15;75.08;101669.28;5115368;28;20047;-64
2023/02/13 09:55:51;;;;;;;1.92;1.80;;;;;;;4.08;74.74;101686.59;5107757;28;20048;-66
2023/02/13 09:58:34;;;;;;;2.50;2.30;;;;;;;4.08;75.67;101696.69;5112183;28;20138;-66
2023/02/13 10:01:07;;;;;;;7.50;2.53;;;;;;;4.06;75.45;101690.69;5112101;28;20093;-67
2023/02/13 10:03:44;;;;;;;3.20;3.00;;;;;;;4.04;74.85;101684.69;5113446;28;20044;-66
2023/02/13 10:06:19;;;;;;;2.92;2.70;;;;;;;4.02;75.43;101691.31;5113408;28;20189;-65
2023/02/13 10:09:05;;;;;;;2.75;2.55;;;;;;;3.83;75.05;101658.19;5107765;28;20051;-66
2023/02/13 10:11:49;;;;;;;6.40;1.70;;;;;;;4.06;75.59;101678.06;5114859;28;20073;-66
2023/02/13 10:14:24;;;;;;;2.60;1.88;;;;;;;4.19;75.03;101673.69;5114735;28;20039;-66
2023/02/13 10:16:56;;;;;;;2.03;1.88;;;;;;;4.27;75.03;101675.03;5115252;28;20154;-65
2023/02/13 10:19:36;;;;;;;2.40;2.20;;;;;;;4.31;74.83;101669.34;5114377;28;20052;-66
2023/02/13 10:22:12;;;;;;;3.40;1.75;;;;;;;4.36;75.42;101671.34;5110630;28;20039;-66
2023/02/13 10:24:46;;;;;;;7.07;3.05;;;;;;;4.43;75.09;101672.56;5105908;28;20078;-65
2023/02/13 10:27:24;;;;;;;1.63;1.48;;;;;;;4.48;74.50;101666.97;5102137;28;20051;-66
2023/02/13 10:33:09;;;;;;;2.38;2.20;;;;;;;4.60;75.05;101657.53;5113636;28;20050;-67
2023/02/13 10:35:39;;;;;;;5.57;3.30;;;;;;;4.59;74.86;101644.78;5112861;28;20477;-65
2023/02/13 10:38:16;;;;;;;2.60;2.22;;;;;;;4.56;74.82;101648.03;5112533;28;20130;-65
2023/02/13 10:41:04;;;;;;;1.38;1.27;;;;;;;4.57;74.39;101636.25;5114729;28;20126;-65
2023/02/13 10:43:47;;;;;;;2.33;2.10;;;;;;;4.62;74.91;101637.38;5113064;28;20044;-66
2023/02/13 10:46:25;;;;;;;3.33;3.03;;;;;;;4.70;74.78;101631.09;5108184;28;20040;-65
2023/02/13 10:49:06;;;;;;;2.03;1.90;;;;;;;4.70;74.89;101631.09;5100224;28;20075;-64
2023/02/13 10:51:44;;;;;;;2.83;2.17;;;;;;;4.83;74.59;101628.41;5103528;28;20040;-64
2023/02/13 10:54:34;;;;;;;1.42;1.13;;;;;;;5.03;74.58;101630.34;5114681;28;20044;-64
2023/02/13 10:57:06;;;;;;;;;;;;;;;5.32;74.11;101627.69;5114624;28;20058;-65
2023/02/13 10:59:56;;;;;;;2.25;2.05;;;;;;;5.53;73.14;101615.22;5114456;28;19919;-66
2023/02/13 11:02:27;;;;;;;1.67;1.20;;;;;;;5.77;72.53;101618.09;5103913;28;20464;-68
2023/02/13 11:05:00;;;;;;;2.42;2.22;;;;;;;6.05;72.08;101603.47;5113105;28;20047;-66
2023/02/13 11:07:31;;;;;;;3.40;3.13;;;;;;;6.24;71.80;101602.72;5113517;28;20062;-64
2023/02/13 11:10:06;;;;;;;6.22;2.65;;;;;;;6.24;71.22;101603.56;5113056;28;20035;-65
2023/02/13 11:12:35;;;;;;;2.72;2.05;;;;;;;6.41;71.07;101592.53;5098260;28;20485;-64
2023/02/13 11:15:07;;;;;;;3.97;3.60;;;;;;;6.77;70.93;101597.59;5093483;28;20043;-65
2023/02/13 11:17:41;;;;;;;4.32;2.47;;;;;;;6.95;70.63;101583.16;5098389;28;20126;-67
2023/02/13 11:20:28;;;;;;;5.55;3.90;;;;;;;6.96;70.23;101584.91;5114125;28;20050;-66
2023/02/13 11:23:14;;;;;;;1.65;1.55;;;;;;;7.27;70.35;101588.00;5101176;28;20046;-66
2023/02/13 11:25:56;;;;;;;2.15;2.03;;;;;;;7.52;70.16;101583.13;5093411;28;20044;-66
2023/02/13 11:28:28;;;;;;;9.63;3.35;;;;;;;7.65;69.31;101587.06;5093590;28;20101;-65
2023/02/13 11:31:25;;;;;;;2.15;1.90;;;;;;;7.74;69.31;101582.34;5094123;28;20043;-67
2023/02/13 11:33:54;;;;;;;2.22;2.03;;;;;;;7.77;69.24;101578.28;5097730;28;20044;-67
2023/02/13 11:36:29;;;;;;;4.50;3.17;;;;;;;8.15;69.20;101581.47;5097495;28;20048;-65
2023/02/13 11:38:59;;;;;;;4.72;2.90;;;;;;;8.18;68.16;101576.50;5099960;28;20064;-65
2023/02/13 11:41:30;;;;;;;5.10;2.95;;;;;;;8.26;68.24;101570.03;5102622;28;20078;-65
2023/02/13 11:44:02;;;;;;;3.70;2.55;;;;;;;8.42;67.65;101573.25;5097179;28;20051;-67
2023/02/13 11:46:46;;;;;;;3.13;2.83;;;;;;;8.49;66.84;101567.63;5099812;28;20044;-67
2023/02/13 11:49:19;;;;;;;3.92;2.85;;;;;;;8.70;66.77;101565.00;5100780;28;20044;-66
2023/02/13 11:51:50;;;;;;;2.25;2.08;;;;;;;8.91;66.83;101564.91;5106931;28;20645;-66
2023/02/13 11:54:31;;;;;;;3.30;1.70;;;;;;;9.17;65.80;101564.13;5118122;28;20130;-66
2023/02/13 11:57:02;;;;;;;1.75;1.65;;;;;;;9.35;65.94;101560.56;5118027;28;20553;-67
2023/02/13 11:59:41;;;;;;;3.15;2.42;;;;;;;9.39;65.04;101562.41;5117599;28;20051;-66
2023/02/13 12:02:18;;;;;;;14.95;3.85;;;;;;;9.49;64.82;101562.72;5116574;28;20039;-66
2023/02/13 12:04:50;;;;;;;2.60;1.98;;;;;;;9.65;65.25;101547.09;5109460;28;20039;-67
2023/02/13 12:07:25;;;;;;;2.92;2.38;;;;;;;9.61;64.81;101547.81;5101585;28;20097;-66
2023/02/13 12:10:02;;;;;;;2.15;1.75;;;;;;;9.41;64.28;101545.47;5095825;28;20044;-68
2023/02/13 12:12:38;;;;;;;3.80;2.00;;;;;;;9.23;64.37;101539.78;5097120;28;20071;-67
2023/02/13 12:15:18;;;;;;;4.22;2.42;;;;;;;9.01;65.68;101532.19;5096747;28;20406;-66
2023/02/13 12:18:00;;;;;;;1.98;1.38;;;;;;;8.96;65.34;101528.59;5096874;28;20097;-66
2023/02/13 12:20:37;;;;;;;1.60;1.50;;;;;;;8.99;66.01;101531.28;5097043;28;20044;-66
2023/02/13 12:23:16;;;;;;;3.10;2.30;;;;;;;9.01;65.99;101521.13;5096726;28;20517;-66
2023/02/13 12:25:54;;;;;;;3.08;2.78;;;;;;;9.07;66.37;101512.00;5096558;28;20048;-67
2023/02/13 12:28:32;;;;;;;1.77;1.58;;;;;;;9.11;66.64;101513.88;5096838;28;20424;-66
2023/02/13 12:31:24;;;;;;;1.40;1.13;;;;;;;9.13;66.75;101506.25;5096611;28;20052;-67
2023/02/13 12:34:27;;;;;;;3.83;1.73;;;;;;;9.18;65.88;101499.66;5096248;28;20126;-66
2023/02/13 12:37:13;;;;;;;3.13;2.42;;;;;;;9.19;65.99;101501.41;5096693;28;20127;-67
2023/02/13 12:39:52;;;;;;;1.85;1.67;;;;;;;9.21;65.99;101495.50;5096365;28;20048;-67